Time;durP1;ratioP1;P1;durP2;ratioP2;P2;SDS_P1;SDS_P2;PMS_P1;PMS_P2;Temp;Humidity;BMP_temperature;BMP_pressure;BME280_temperature;BME280_humidity;BME280_pressure;Samples;Min_cycle;Max_cycle;Signal;HPM_P1;HPM_P2
2023/05/11 00:01:51;;;;;;;0.10;0.10;;;13.70;99.90;;;;;;5091780;28;20028;-89
2023/05/11 00:04:17;;;;;;;0.00;0.00;;;13.60;99.90;;;;;;5091587;28;20513;-89
2023/05/11 00:06:42;;;;;;;0.00;0.00;;;13.70;99.90;;;;;;5093282;28;20035;-89
2023/05/11 00:09:10;;;;;;;0.00;0.00;;;13.80;99.90;;;;;;5092496;28;20016;-89
2023/05/11 00:11:35;;;;;;;0.00;0.00;;;13.80;99.90;;;;;;5092758;28;20032;-89
2023/05/11 00:14:01;;;;;;;0.00;0.00;;;13.60;99.90;;;;;;5091554;28;20496;-89
2023/05/11 00:16:26;;;;;;;0.10;0.10;;;13.60;99.90;;;;;;5091279;28;20408;-89
2023/05/11 00:18:52;;;;;;;0.57;0.25;;;13.60;99.90;;;;;;5091013;28;20106;-89
2023/05/11 00:21:18;;;;;;;0.00;0.00;;;13.50;99.90;;;;;;5091174;28;20020;-89
2023/05/11 00:23:43;;;;;;;0.00;0.00;;;13.40;99.90;;;;;;5092289;28;20369;-89
2023/05/11 00:26:09;;;;;;;0.00;0.00;;;13.40;99.90;;;;;;5091354;28;20044;-89
2023/05/11 00:28:35;;;;;;;0.15;0.15;;;13.40;99.90;;;;;;5092164;28;20032;-88
2023/05/11 00:31:01;;;;;;;0.10;0.10;;;13.30;99.90;;;;;;5091438;28;20488;-89
2023/05/11 00:33:26;;;;;;;0.17;0.17;;;13.40;99.90;;;;;;5092517;28;20496;-89
2023/05/11 00:35:52;;;;;;;0.05;0.05;;;13.70;99.90;;;;;;5092411;28;20031;-89
2023/05/11 00:38:18;;;;;;;0.20;0.20;;;13.60;99.90;;;;;;5092276;28;20028;-89
2023/05/11 00:40:43;;;;;;;0.03;0.03;;;13.60;99.90;;;;;;5090744;28;20033;-88
2023/05/11 00:43:09;;;;;;;0.45;0.10;;;13.50;99.90;;;;;;5092640;28;20024;-88
2023/05/11 00:45:35;;;;;;;0.08;0.08;;;13.50;99.90;;;;;;5092269;28;20372;-89
2023/05/11 00:48:01;;;;;;;0.00;0.00;;;13.60;99.90;;;;;;5092110;28;20519;-89
2023/05/11 00:50:27;;;;;;;0.00;0.00;;;13.50;99.90;;;;;;5092586;28;20031;-89
2023/05/11 00:52:53;;;;;;;0.00;0.00;;;13.60;99.90;;;;;;5092444;28;20024;-89
2023/05/11 00:55:22;;;;;;;0.00;0.00;;;13.50;99.90;;;;;;5091904;28;20039;-89
2023/05/11 00:57:48;;;;;;;0.05;0.05;;;13.50;99.90;;;;;;5092263;28;20020;-89
2023/05/11 01:00:14;;;;;;;0.00;0.00;;;13.50;99.90;;;;;;5092248;28;20032;-89
2023/05/11 01:02:40;;;;;;;0.00;0.00;;;13.50;99.90;;;;;;5092142;28;20017;-88
2023/05/11 01:05:07;;;;;;;0.00;0.00;;;13.40;99.90;;;;;;5090883;28;20077;-88
2023/05/11 01:07:40;;;;;;;0.30;0.30;;;13.30;99.90;;;;;;5092462;28;20042;-89
2023/05/11 01:10:09;;;;;;;0.00;0.00;;;13.50;99.90;;;;;;5090533;28;20107;-89
2023/05/11 01:12:55;;;;;;;0.10;0.10;;;13.50;99.90;;;;;;5092261;28;20111;-89
2023/05/11 01:15:50;;;;;;;0.00;0.00;;;13.50;99.90;;;;;;5091804;28;20380;-90
2023/05/11 01:18:38;;;;;;;0.00;0.00;;;13.40;99.90;;;;;;5092227;28;20028;-90
2023/05/11 01:21:07;;;;;;;0.00;0.00;;;13.50;99.90;;;;;;5091068;28;20040;-89
2023/05/11 01:23:55;;;;;;;0.00;0.00;;;13.50;99.90;;;;;;5092351;28;20020;-89
2023/05/11 01:26:34;;;;;;;0.10;0.10;;;13.60;99.90;;;;;;5091744;28;20028;-89
2023/05/11 01:29:31;;;;;;;0.00;0.00;;;13.60;99.90;;;;;;5091871;28;20035;-89
2023/05/11 01:31:58;;;;;;;0.00;0.00;;;13.60;99.90;;;;;;5091989;28;20069;-90
2023/05/11 01:34:28;;;;;;;0.05;0.05;;;13.50;99.90;;;;;;5092591;28;20024;-90
2023/05/11 01:37:03;;;;;;;0.20;0.20;;;13.50;99.90;;;;;;5094351;28;20553;-89
2023/05/11 01:39:37;;;;;;;0.00;0.00;;;13.60;99.90;;;;;;5093994;28;20476;-89
2023/05/11 01:42:08;;;;;;;0.22;0.22;;;13.70;99.90;;;;;;5095490;28;20020;-88
2023/05/11 01:44:36;;;;;;;0.00;0.00;;;13.60;99.90;;;;;;5094229;28;20031;-89
2023/05/11 01:47:03;;;;;;;0.00;0.00;;;13.50;99.90;;;;;;5095007;28;20392;-90
2023/05/11 01:49:32;;;;;;;0.00;0.00;;;13.40;99.90;;;;;;5094677;28;20120;-89
2023/05/11 01:52:00;;;;;;;0.10;0.10;;;13.50;99.90;;;;;;5095311;28;20028;-89
2023/05/11 01:54:27;;;;;;;0.00;0.00;;;13.60;99.90;;;;;;5093660;28;20035;-89
2023/05/11 01:56:54;;;;;;;0.00;0.00;;;13.70;99.90;;;;;;5095100;28;20027;-89
2023/05/11 01:59:21;;;;;;;0.00;0.00;;;13.60;99.90;;;;;;5094016;28;20031;-90
2023/05/11 02:01:47;;;;;;;0.00;0.00;;;13.60;99.90;;;;;;5094995;28;20538;-89
2023/05/11 02:04:14;;;;;;;0.10;0.10;;;13.60;99.90;;;;;;5093766;28;20024;-90
2023/05/11 02:06:42;;;;;;;0.10;0.10;;;13.50;99.90;;;;;;5095012;28;20096;-90
2023/05/11 02:09:11;;;;;;;0.10;0.10;;;13.60;99.90;;;;;;5094582;28;20391;-89
2023/05/11 02:11:38;;;;;;;0.15;0.15;;;13.60;99.90;;;;;;5095303;28;20076;-89
2023/05/11 02:14:05;;;;;;;0.00;0.00;;;13.60;99.90;;;;;;5094970;28;20028;-89
2023/05/11 02:16:32;;;;;;;0.00;0.00;;;13.60;99.90;;;;;;5094833;28;20085;-89
2023/05/11 02:18:58;;;;;;;0.10;0.10;;;13.60;99.90;;;;;;5095031;28;20096;-89
2023/05/11 02:21:26;;;;;;;0.00;0.00;;;13.80;99.90;;;;;;5093284;28;20038;-89
2023/05/11 02:23:53;;;;;;;0.10;0.10;;;13.70;99.90;;;;;;5093122;28;20043;-90
2023/05/11 02:26:19;;;;;;;0.52;0.52;;;13.60;99.90;;;;;;5094400;28;20488;-89
2023/05/11 02:28:45;;;;;;;0.00;0.00;;;13.40;99.90;;;;;;5093263;28;20039;-89
2023/05/11 02:31:17;;;;;;;0.00;0.00;;;13.50;99.90;;;;;;5094517;28;20028;-89
2023/05/11 02:33:46;;;;;;;0.03;0.03;;;13.40;99.90;;;;;;5094519;28;20024;-90
2023/05/11 02:36:18;;;;;;;0.00;0.00;;;13.40;99.90;;;;;;5093576;28;20476;-90
2023/05/11 02:38:46;;;;;;;0.10;0.10;;;13.40;99.90;;;;;;5093940;28;20028;-89
2023/05/11 02:41:17;;;;;;;0.00;0.00;;;13.40;99.90;;;;;;5094450;28;20020;-90
2023/05/11 02:43:47;;;;;;;0.00;0.00;;;13.40;99.90;;;;;;5094558;28;20552;-90
2023/05/11 02:46:17;;;;;;;0.10;0.10;;;13.40;99.90;;;;;;5093981;28;20547;-89
2023/05/11 02:48:49;;;;;;;0.10;0.10;;;13.50;99.90;;;;;;5093119;28;20013;-89
2023/05/11 02:51:18;;;;;;;0.00;0.00;;;13.70;99.90;;;;;;5093808;28;20024;-89
2023/05/11 02:53:45;;;;;;;0.00;0.00;;;13.70;99.90;;;;;;5094205;28;20040;-90
2023/05/11 02:56:12;;;;;;;0.00;0.00;;;13.80;99.90;;;;;;5094067;28;20472;-89
2023/05/11 02:58:38;;;;;;;0.85;0.68;;;13.80;99.90;;;;;;5094199;28;20532;-90
2023/05/11 03:01:06;;;;;;;0.00;0.00;;;13.70;99.90;;;;;;5094182;28;20111;-89
2023/05/11 03:03:31;;;;;;;0.00;0.00;;;13.70;99.90;;;;;;5094089;28;20028;-89
2023/05/11 03:05:57;;;;;;;0.10;0.10;;;13.60;99.90;;;;;;5092217;28;20032;-90
2023/05/11 03:08:23;;;;;;;0.08;0.08;;;13.60;99.90;;;;;;5092591;28;20031;-90
2023/05/11 03:10:50;;;;;;;0.00;0.00;;;13.50;99.90;;;;;;5093758;28;20480;-90
2023/05/11 03:13:18;;;;;;;0.00;0.00;;;13.50;99.90;;;;;;5092377;28;20028;-89
2023/05/11 03:15:45;;;;;;;0.10;0.10;;;13.60;99.90;;;;;;5093946;28;20434;-90
2023/05/11 03:18:11;;;;;;;0.00;0.00;;;13.60;99.90;;;;;;5092550;28;20031;-90
2023/05/11 03:20:40;;;;;;;0.00;0.00;;;13.60;99.90;;;;;;5092889;28;20056;-90
2023/05/11 03:23:07;;;;;;;0.00;0.00;;;13.50;99.90;;;;;;5092223;28;20080;-89
2023/05/11 03:25:33;;;;;;;0.10;0.10;;;13.50;99.90;;;;;;5093907;28;20056;-89
2023/05/11 03:28:00;;;;;;;0.05;0.05;;;13.50;99.90;;;;;;5093329;28;20103;-89
2023/05/11 03:30:28;;;;;;;0.00;0.00;;;13.60;99.90;;;;;;5092233;28;20070;-89
2023/05/11 03:32:53;;;;;;;0.00;0.00;;;13.60;99.90;;;;;;5093453;28;20107;-89
2023/05/11 03:35:22;;;;;;;0.00;0.00;;;13.50;99.90;;;;;;5092931;28;20103;-90
2023/05/11 03:37:50;;;;;;;0.00;0.00;;;13.40;99.90;;;;;;5093135;28;20099;-89
2023/05/11 03:40:17;;;;;;;0.45;0.10;;;13.40;99.90;;;;;;5093244;28;20089;-90
2023/05/11 03:42:43;;;;;;;0.15;0.15;;;13.40;99.90;;;;;;5093025;28;20081;-90
2023/05/11 03:45:12;;;;;;;0.10;0.10;;;13.20;99.90;;;;;;5093086;28;20055;-90
2023/05/11 03:47:39;;;;;;;0.10;0.10;;;13.10;99.90;;;;;;5092756;28;20024;-90
2023/05/11 03:50:07;;;;;;;0.10;0.10;;;13.10;99.90;;;;;;5092029;28;20052;-89
2023/05/11 03:52:34;;;;;;;0.00;0.00;;;13.10;99.90;;;;;;5093040;28;20028;-89
2023/05/11 03:55:01;;;;;;;0.10;0.10;;;13.20;99.90;;;;;;5093072;28;20031;-89
2023/05/11 03:57:26;;;;;;;0.17;0.17;;;13.00;99.90;;;;;;5090915;28;20031;-89
2023/05/11 03:59:52;;;;;;;0.00;0.00;;;13.20;99.90;;;;;;5093203;28;20389;-89
2023/05/11 04:02:18;;;;;;;0.00;0.00;;;13.30;99.90;;;;;;5091520;28;20035;-89
2023/05/11 04:04:43;;;;;;;0.10;0.10;;;13.20;99.90;;;;;;5091151;28;20019;-89
2023/05/11 04:07:09;;;;;;;0.00;0.00;;;13.10;99.90;;;;;;5093076;28;20476;-89
2023/05/11 04:09:34;;;;;;;0.00;0.00;;;13.10;99.90;;;;;;5091534;28;20024;-89
2023/05/11 04:12:00;;;;;;;0.00;0.00;;;13.10;99.90;;;;;;5092622;28;20082;-89
2023/05/11 04:14:26;;;;;;;0.10;0.10;;;13.00;99.90;;;;;;5092983;28;20048;-89
2023/05/11 04:16:51;;;;;;;0.00;0.00;;;13.10;99.90;;;;;;5092678;28;20553;-89
2023/05/11 04:19:17;;;;;;;0.28;0.28;;;13.20;99.90;;;;;;5090553;28;20063;-89
2023/05/11 04:21:42;;;;;;;0.00;0.00;;;13.20;99.90;;;;;;5092570;28;20020;-89
2023/05/11 04:24:08;;;;;;;0.10;0.10;;;13.10;99.90;;;;;;5091289;28;20028;-89
2023/05/11 04:26:34;;;;;;;0.10;0.10;;;13.10;99.90;;;;;;5091006;28;20035;-89
2023/05/11 04:28:59;;;;;;;0.08;0.08;;;13.00;99.90;;;;;;5091214;28;20077;-89
2023/05/11 04:31:25;;;;;;;0.10;0.10;;;13.00;99.90;;;;;;5092657;28;20032;-89
2023/05/11 04:33:50;;;;;;;0.00;0.00;;;13.00;99.90;;;;;;5090753;28;20481;-89
2023/05/11 04:36:16;;;;;;;0.00;0.00;;;13.00;99.90;;;;;;5092518;28;20115;-89
2023/05/11 04:38:42;;;;;;;0.10;0.10;;;13.00;99.90;;;;;;5092421;28;20691;-89
2023/05/11 04:41:07;;;;;;;0.00;0.00;;;12.90;99.90;;;;;;5092594;28;20447;-89
2023/05/11 04:43:34;;;;;;;0.10;0.10;;;13.00;99.90;;;;;;5092321;28;20084;-89
2023/05/11 04:46:00;;;;;;;0.10;0.10;;;13.00;99.90;;;;;;5091064;28;20407;-89
2023/05/11 04:48:26;;;;;;;0.30;0.13;;;13.00;99.90;;;;;;5090674;28;20480;-89
2023/05/11 04:50:53;;;;;;;0.03;0.03;;;13.10;99.90;;;;;;5092453;28;20032;-89
2023/05/11 04:53:18;;;;;;;0.10;0.10;;;13.20;99.90;;;;;;5090808;28;20491;-89
2023/05/11 04:55:44;;;;;;;0.00;0.00;;;13.30;99.90;;;;;;5092228;28;20028;-89
2023/05/11 04:58:10;;;;;;;0.03;0.03;;;13.20;99.90;;;;;;5092122;28;20024;-90
2023/05/11 05:00:36;;;;;;;0.10;0.10;;;13.40;99.90;;;;;;5092025;28;20425;-89
2023/05/11 05:03:02;;;;;;;0.10;0.10;;;13.50;99.90;;;;;;5092111;28;20027;-89
2023/05/11 05:05:28;;;;;;;0.00;0.00;;;13.50;99.90;;;;;;5091847;28;20032;-88
2023/05/11 05:07:53;;;;;;;0.43;0.40;;;13.30;99.90;;;;;;5090713;28;20568;-89
2023/05/11 05:10:19;;;;;;;0.57;0.57;;;13.30;99.90;;;;;;5094324;28;20030;-89
2023/05/11 05:12:45;;;;;;;0.00;0.00;;;13.30;99.90;;;;;;5094960;28;20356;-89
2023/05/11 05:15:11;;;;;;;0.10;0.10;;;13.40;99.90;;;;;;5095879;28;20134;-89
2023/05/11 05:17:36;;;;;;;0.05;0.05;;;13.40;99.90;;;;;;5094611;28;20123;-90
2023/05/11 05:20:03;;;;;;;0.00;0.00;;;13.60;99.90;;;;;;5095841;28;20059;-89
2023/05/11 05:22:30;;;;;;;0.00;0.00;;;13.70;99.90;;;;;;5095789;28;20024;-89
2023/05/11 05:24:55;;;;;;;0.00;0.00;;;13.60;99.90;;;;;;5096021;28;20036;-88
2023/05/11 05:27:21;;;;;;;0.00;0.00;;;13.60;99.90;;;;;;5095784;28;20124;-89
2023/05/11 05:29:46;;;;;;;0.10;0.10;;;13.60;99.90;;;;;;5095668;28;20057;-89
2023/05/11 05:32:12;;;;;;;0.00;0.00;;;13.70;99.90;;;;;;5094516;28;20055;-92
2023/05/11 05:34:38;;;;;;;0.00;0.00;;;13.80;99.90;;;;;;5096495;28;20073;-90
2023/05/11 05:37:03;;;;;;;0.20;0.20;;;13.80;99.90;;;;;;5094288;28;20412;-90
2023/05/11 05:39:29;;;;;;;0.00;0.00;;;13.90;99.90;;;;;;5095630;28;20043;-89
2023/05/11 05:41:55;;;;;;;0.10;0.10;;;13.90;99.90;;;;;;5095735;28;20496;-89
2023/05/11 05:44:21;;;;;;;0.10;0.10;;;13.90;99.90;;;;;;5094184;28;20028;-89
2023/05/11 05:46:46;;;;;;;0.00;0.00;;;13.90;99.90;;;;;;5094717;28;20043;-89
2023/05/11 05:49:12;;;;;;;0.10;0.10;;;13.90;99.90;;;;;;5094164;28;20024;-89
2023/05/11 05:51:38;;;;;;;0.00;0.00;;;13.90;99.90;;;;;;5094056;28;20065;-90
2023/05/11 05:54:03;;;;;;;0.00;0.00;;;13.80;99.90;;;;;;5095248;28;20028;-90
2023/05/11 05:56:30;;;;;;;0.00;0.00;;;13.80;99.90;;;;;;5095248;28;20389;-90
2023/05/11 05:58:56;;;;;;;0.00;0.00;;;13.80;99.90;;;;;;5095445;28;20027;-89
2023/05/11 06:01:22;;;;;;;0.00;0.00;;;13.40;99.90;;;;;;5094771;28;20472;-90
2023/05/11 06:03:47;;;;;;;0.00;0.00;;;13.40;99.90;;;;;;5094906;28;20074;-89
2023/05/11 06:06:13;;;;;;;0.00;0.00;;;13.50;99.90;;;;;;5094957;28;20043;-90
2023/05/11 06:08:39;;;;;;;0.00;0.00;;;13.60;99.90;;;;;;5094894;28;20020;-89
2023/05/11 06:11:04;;;;;;;0.10;0.10;;;13.60;99.90;;;;;;5094919;28;20028;-90
2023/05/11 06:13:30;;;;;;;0.00;0.00;;;13.80;99.90;;;;;;5093569;28;20020;-89
2023/05/11 06:15:56;;;;;;;0.10;0.10;;;13.80;99.90;;;;;;5094362;28;20024;-89
2023/05/11 06:18:21;;;;;;;0.00;0.00;;;13.80;99.90;;;;;;5093377;28;20472;-89
2023/05/11 06:20:47;;;;;;;0.10;0.10;;;13.80;99.90;;;;;;5093823;28;20067;-89
2023/05/11 06:23:12;;;;;;;0.00;0.00;;;13.80;99.90;;;;;;5093228;28;20480;-90
2023/05/11 06:25:38;;;;;;;0.22;0.22;;;13.90;99.90;;;;;;5094499;28;20040;-89
2023/05/11 06:28:04;;;;;;;0.00;0.00;;;14.00;99.90;;;;;;5094900;28;20034;-89
2023/05/11 06:30:30;;;;;;;0.05;0.05;;;14.10;99.90;;;;;;5094078;28;20051;-89
2023/05/11 06:32:56;;;;;;;0.10;0.10;;;14.00;99.90;;;;;;5094470;28;20476;-89
2023/05/11 06:35:21;;;;;;;0.10;0.10;;;14.10;99.90;;;;;;5093035;28;20031;-89
2023/05/11 06:37:48;;;;;;;0.00;0.00;;;14.00;99.90;;;;;;5094318;28;20024;-89
2023/05/11 06:40:15;;;;;;;0.00;0.00;;;14.10;99.90;;;;;;5093702;28;20097;-89
2023/05/11 06:42:41;;;;;;;0.00;0.00;;;14.00;99.90;;;;;;5092901;28;20028;-90
2023/05/11 06:45:07;;;;;;;0.00;0.00;;;14.10;99.90;;;;;;5093785;28;20093;-90
2023/05/11 06:47:33;;;;;;;0.00;0.00;;;14.20;99.90;;;;;;5093936;28;20120;-89
2023/05/11 06:49:59;;;;;;;0.10;0.10;;;14.30;99.90;;;;;;5094116;28;20527;-89
2023/05/11 06:52:24;;;;;;;0.10;0.10;;;14.30;99.90;;;;;;5094245;28;20020;-89
2023/05/11 06:54:50;;;;;;;0.00;0.00;;;14.40;99.90;;;;;;5094391;28;20024;-89
2023/05/11 06:57:16;;;;;;;0.00;0.00;;;14.30;99.90;;;;;;5092881;28;20175;-89
2023/05/11 06:59:42;;;;;;;0.00;0.00;;;14.40;99.90;;;;;;5093660;28;20020;-89
2023/05/11 07:02:08;;;;;;;0.00;0.00;;;14.70;99.90;;;;;;5093649;28;20548;-89
2023/05/11 07:04:34;;;;;;;0.00;0.00;;;14.80;99.90;;;;;;5092439;28;20028;-89
2023/05/11 07:06:59;;;;;;;0.00;0.00;;;14.90;99.90;;;;;;5092588;28;20111;-90
2023/05/11 07:09:25;;;;;;;0.20;0.10;;;15.00;99.90;;;;;;5092630;28;20484;-90
2023/05/11 07:11:51;;;;;;;0.00;0.00;;;14.90;99.90;;;;;;5093604;28;20024;-89
2023/05/11 07:14:17;;;;;;;0.00;0.00;;;15.10;99.90;;;;;;5093175;28;20024;-89
2023/05/11 07:16:43;;;;;;;0.00;0.00;;;15.30;99.90;;;;;;5093553;28;20024;-90
2023/05/11 07:19:09;;;;;;;0.00;0.00;;;15.20;99.90;;;;;;5093774;28;20070;-89
2023/05/11 07:21:35;;;;;;;0.00;0.00;;;15.40;99.90;;;;;;5093533;28;20028;-90
2023/05/11 07:24:01;;;;;;;0.00;0.00;;;15.30;99.90;;;;;;5092292;28;20035;-89
2023/05/11 07:26:28;;;;;;;1.45;0.63;;;15.30;99.90;;;;;;5091983;28;20048;-89
2023/05/11 07:28:54;;;;;;;0.00;0.00;;;15.30;99.90;;;;;;5093445;28;20431;-89
2023/05/11 07:31:20;;;;;;;0.08;0.08;;;15.50;99.90;;;;;;5093025;28;20036;-89
2023/05/11 07:33:46;;;;;;;0.08;0.08;;;15.40;99.90;;;;;;5092610;28;20029;-89
2023/05/11 07:36:12;;;;;;;0.00;0.00;;;15.40;99.90;;;;;;5091791;28;20028;-90
2023/05/11 07:38:37;;;;;;;0.20;0.15;;;15.40;99.90;;;;;;5091726;28;20031;-90
2023/05/11 07:41:03;;;;;;;0.00;0.00;;;15.40;99.90;;;;;;5093093;28;20055;-90
2023/05/11 07:43:29;;;;;;;0.10;0.10;;;15.50;99.90;;;;;;5092124;28;20024;-89
2023/05/11 07:45:54;;;;;;;0.00;0.00;;;15.90;99.90;;;;;;5092922;28;20028;-90
2023/05/11 07:48:20;;;;;;;0.00;0.00;;;15.60;99.90;;;;;;5091741;28;20025;-89
2023/05/11 07:50:46;;;;;;;0.00;0.00;;;15.50;99.90;;;;;;5091812;28;20038;-89
2023/05/11 07:53:12;;;;;;;0.10;0.10;;;15.40;99.90;;;;;;5091959;28;20392;-90
2023/05/11 07:55:37;;;;;;;0.00;0.00;;;15.10;99.90;;;;;;5092978;28;20084;-90
2023/05/11 07:58:03;;;;;;;0.00;0.00;;;15.00;99.90;;;;;;5092270;28;20127;-89
2023/05/11 08:00:28;;;;;;;0.08;0.08;;;14.80;99.90;;;;;;5091840;28;20064;-89
2023/05/11 08:02:54;;;;;;;0.00;0.00;;;14.50;99.90;;;;;;5091657;28;20110;-89
2023/05/11 08:05:20;;;;;;;0.00;0.00;;;14.40;99.90;;;;;;5092610;28;20096;-90
2023/05/11 08:07:46;;;;;;;0.00;0.00;;;14.50;99.90;;;;;;5091646;28;20465;-90
2023/05/11 08:10:12;;;;;;;0.10;0.10;;;14.70;99.90;;;;;;5092889;28;20020;-90
2023/05/11 08:12:37;;;;;;;0.10;0.10;;;14.90;99.90;;;;;;5092359;28;20031;-89
2023/05/11 08:15:04;;;;;;;0.38;0.30;;;15.20;99.90;;;;;;5092576;28;20035;-89
2023/05/11 08:17:31;;;;;;;0.00;0.00;;;15.70;99.90;;;;;;5092674;28;20016;-89
2023/05/11 08:19:56;;;;;;;0.17;0.15;;;15.70;99.90;;;;;;5092491;28;20086;-89
2023/05/11 08:22:22;;;;;;;0.00;0.00;;;15.60;99.90;;;;;;5091798;28;20055;-89
2023/05/11 08:24:51;;;;;;;0.00;0.00;;;15.80;99.90;;;;;;5090703;28;20024;-90
2023/05/11 08:27:16;;;;;;;0.00;0.00;;;15.90;99.90;;;;;;5091463;28;20089;-89
2023/05/11 08:29:42;;;;;;;0.05;0.05;;;16.10;99.90;;;;;;5092772;28;20024;-89
2023/05/11 08:32:08;;;;;;;0.10;0.10;;;16.30;99.90;;;;;;5092779;28;20110;-89
2023/05/11 08:34:33;;;;;;;0.10;0.10;;;16.30;99.90;;;;;;5092468;28;20104;-90
2023/05/11 08:37:03;;;;;;;0.00;0.00;;;16.70;99.90;;;;;;5092812;28;20031;-89
2023/05/11 08:39:28;;;;;;;0.10;0.10;;;16.70;99.90;;;;;;5092605;28;20032;-90
2023/05/11 08:42:14;;;;;;;0.00;0.00;;;16.50;99.90;;;;;;5093308;28;20034;-89
2023/05/11 08:44:42;;;;;;;0.00;0.00;;;16.70;99.90;;;;;;5092680;28;20141;-89
2023/05/11 08:47:09;;;;;;;0.10;0.10;;;17.10;99.90;;;;;;5095911;28;20484;-89
2023/05/11 08:49:36;;;;;;;0.00;0.00;;;17.30;99.90;;;;;;5096618;28;20059;-90
2023/05/11 08:52:04;;;;;;;0.25;0.25;;;17.20;99.90;;;;;;5097285;28;20032;-89
2023/05/11 08:54:30;;;;;;;0.05;0.03;;;17.20;99.90;;;;;;5096197;28;20020;-89
2023/05/11 08:56:57;;;;;;;0.28;0.28;;;17.30;99.90;;;;;;5096399;28;20025;-89
2023/05/11 08:59:26;;;;;;;0.00;0.00;;;16.80;99.90;;;;;;5096833;28;20038;-90
2023/05/11 09:01:54;;;;;;;0.20;0.20;;;16.40;99.90;;;;;;5096254;28;20507;-89
2023/05/11 09:04:21;;;;;;;0.00;0.00;;;16.00;99.90;;;;;;5096148;28;20040;-88
2023/05/11 09:06:48;;;;;;;0.20;0.20;;;15.80;99.90;;;;;;5129373;27;20050;-89
2023/05/11 09:09:15;;;;;;;0.10;0.10;;;15.60;99.90;;;;;;5095733;28;20095;-89
2023/05/11 09:11:42;;;;;;;0.00;0.00;;;15.60;99.90;;;;;;5095812;28;20098;-89
2023/05/11 09:14:07;;;;;;;0.03;0.03;;;15.40;99.90;;;;;;5094709;28;20172;-90
2023/05/11 09:16:33;;;;;;;0.10;0.10;;;15.20;99.90;;;;;;5094638;28;20028;-89
2023/05/11 09:19:04;;;;;;;0.10;0.10;;;15.20;99.90;;;;;;5095471;28;20052;-89
2023/05/11 09:21:30;;;;;;;0.00;0.00;;;15.60;99.90;;;;;;5095939;28;20119;-89
2023/05/11 09:23:59;;;;;;;0.28;0.28;;;15.80;99.90;;;;;;5095298;28;20113;-89
2023/05/11 09:26:28;;;;;;;0.00;0.00;;;15.70;99.90;;;;;;5095679;28;20046;-89
2023/05/11 09:28:58;;;;;;;0.00;0.00;;;15.70;99.90;;;;;;5095609;28;20008;-89
2023/05/11 09:31:38;;;;;;;0.00;0.00;;;16.00;99.90;;;;;;5095645;28;20029;-89
2023/05/11 09:34:18;;;;;;;0.00;0.00;;;16.30;99.90;;;;;;5095581;28;20024;-89
2023/05/11 09:36:47;;;;;;;0.22;0.10;;;16.40;99.90;;;;;;5095610;28;20052;-89
2023/05/11 09:39:14;;;;;;;0.08;0.08;;;16.60;99.90;;;;;;5095228;28;20020;-89
2023/05/11 09:41:40;;;;;;;0.30;0.30;;;16.80;99.90;;;;;;5094421;28;20024;-89
2023/05/11 09:44:09;;;;;;;0.00;0.00;;;16.90;99.90;;;;;;5095236;28;20047;-89
2023/05/11 09:46:37;;;;;;;0.10;0.10;;;17.10;99.90;;;;;;5095050;28;20040;-89
2023/05/11 09:49:03;;;;;;;0.20;0.20;;;17.00;99.90;;;;;;5095189;28;20476;-90
2023/05/11 09:51:31;;;;;;;0.22;0.22;;;17.20;99.90;;;;;;5095507;28;20028;-89
2023/05/11 09:53:58;;;;;;;0.03;0.03;;;17.40;99.90;;;;;;5094955;28;20035;-89
2023/05/11 09:56:47;;;;;;;0.10;0.10;;;17.60;99.90;;;;;;5094135;28;20028;-89
2023/05/11 09:59:35;;;;;;;0.00;0.00;;;17.80;99.90;;;;;;5095361;28;20024;-89
2023/05/11 10:02:17;;;;;;;0.00;0.00;;;17.70;99.90;;;;;;5094113;28;20533;-89
2023/05/11 10:04:42;;;;;;;0.00;0.00;;;17.60;99.90;;;;;;5094805;28;20028;-89
2023/05/11 10:07:08;;;;;;;0.08;0.08;;;17.80;99.90;;;;;;5094618;28;20036;-89
2023/05/11 10:09:34;;;;;;;0.00;0.00;;;18.00;99.90;;;;;;5094850;28;20024;-89
2023/05/11 10:12:01;;;;;;;0.10;0.10;;;18.10;99.90;;;;;;5094009;28;20036;-90
2023/05/11 10:14:28;;;;;;;0.05;0.05;;;18.00;99.90;;;;;;5094845;28;20024;-89
2023/05/11 10:16:56;;;;;;;0.10;0.10;;;18.00;99.90;;;;;;5094818;28;20072;-90
2023/05/11 10:19:22;;;;;;;0.10;0.10;;;18.20;99.90;;;;;;5093277;28;20048;-89
2023/05/11 10:21:50;;;;;;;0.00;0.00;;;18.10;99.90;;;;;;5093294;28;20468;-90
2023/05/11 10:24:17;;;;;;;0.00;0.00;;;18.30;99.90;;;;;;5094448;28;20111;-89
2023/05/11 10:26:44;;;;;;;0.00;0.00;;;18.40;99.90;;;;;;5094690;28;20070;-89
2023/05/11 10:29:10;;;;;;;0.00;0.00;;;18.40;99.90;;;;;;5093280;28;20020;-90
2023/05/11 10:31:37;;;;;;;0.00;0.00;;;18.70;99.90;;;;;;5094597;28;20047;-89
2023/05/11 10:34:03;;;;;;;0.00;0.00;;;18.70;99.90;;;;;;5094471;28;20084;-89
2023/05/11 10:36:29;;;;;;;0.10;0.10;;;18.60;99.90;;;;;;5092804;28;20031;-89
2023/05/11 10:38:55;;;;;;;1.45;0.30;;;18.20;99.90;;;;;;5094501;28;20024;-89
2023/05/11 10:41:39;;;;;;;0.03;0.03;;;18.10;99.90;;;;;;5094165;28;20028;-89
2023/05/11 10:44:37;;;;;;;0.20;0.20;;;18.00;99.90;;;;;;5092815;28;20028;-89
2023/05/11 10:47:16;;;;;;;0.00;0.00;;;18.30;99.90;;;;;;4992104;28;20038;-90
2023/05/11 10:50:03;;;;;;;0.08;0.08;;;18.30;99.90;;;;;;4975828;28;20117;-90
2023/05/11 10:52:55;;;;;;;0.00;0.00;;;18.00;99.90;;;;;;4992592;28;20565;-89
2023/05/11 10:55:30;;;;;;;0.10;0.10;;;17.90;99.90;;;;;;4992638;28;20537;-89
2023/05/11 10:58:04;;;;;;;0.00;0.00;;;18.30;99.90;;;;;;4992098;28;20089;-89
2023/05/11 11:01:16;;;;;;;0.52;0.52;;;18.30;99.90;;;;;;4992233;28;20037;-88
2023/05/11 11:03:53;;;;;;;0.00;0.00;;;18.10;99.90;;;;;;4975850;28;20535;-90
2023/05/11 11:06:27;;;;;;;0.00;0.00;;;18.20;99.90;;;;;;4991610;28;20049;-89
2023/05/11 11:09:02;;;;;;;0.00;0.00;;;18.20;99.90;;;;;;4992044;28;20042;-90
2023/05/11 11:11:29;;;;;;;0.10;0.10;;;18.10;99.90;;;;;;4975764;28;20096;-90
2023/05/11 11:13:57;;;;;;;0.00;0.00;;;18.00;99.90;;;;;;4991968;28;20022;-89
2023/05/11 11:16:24;;;;;;;0.13;0.13;;;18.20;99.90;;;;;;4992158;28;20042;-90
2023/05/11 11:18:50;;;;;;;0.10;0.10;;;18.50;99.90;;;;;;4974612;28;20490;-90
2023/05/11 11:21:40;;;;;;;0.20;0.20;;;18.70;99.90;;;;;;4992229;28;20038;-90
2023/05/11 11:24:06;;;;;;;0.10;0.10;;;19.00;99.90;;;;;;5055144;28;20037;-89
2023/05/11 11:26:49;;;;;;;0.10;0.10;;;19.20;99.90;;;;;;5072961;28;20041;-89
2023/05/11 11:29:15;;;;;;;0.28;0.28;;;19.00;99.90;;;;;;5073349;28;20070;-89
2023/05/11 11:31:41;;;;;;;0.00;0.00;;;18.50;99.90;;;;;;5073000;28;20025;-90
2023/05/11 11:34:26;;;;;;;0.00;0.00;;;18.20;99.90;;;;;;5072628;28;20447;-89
2023/05/11 11:36:54;;;;;;;0.05;0.05;;;18.10;99.90;;;;;;5072817;28;20035;-89
2023/05/11 11:39:42;;;;;;;0.03;0.03;;;18.00;99.90;;;;;;5072807;28;20047;-89
2023/05/11 11:42:16;;;;;;;0.10;0.10;;;17.90;99.90;;;;;;5071505;28;20025;-89
2023/05/11 11:44:43;;;;;;;0.15;0.05;;;17.80;99.90;;;;;;5071995;28;20035;-89
2023/05/11 11:47:19;;;;;;;0.00;0.00;;;17.70;99.90;;;;;;5081932;28;20095;-89
2023/05/11 11:49:50;;;;;;;0.25;0.25;;;17.80;99.90;;;;;;5091017;28;20028;-89
2023/05/11 11:52:28;;;;;;;0.15;0.15;;;18.00;99.90;;;;;;5093004;28;20016;-89
2023/05/11 11:55:00;;;;;;;0.00;0.00;;;18.20;99.90;;;;;;5092941;28;20384;-89
2023/05/11 11:57:32;;;;;;;0.10;0.10;;;18.30;99.90;;;;;;5092944;28;20027;-89
2023/05/11 12:00:11;;;;;;;0.20;0.13;;;18.20;99.90;;;;;;5093125;28;20123;-90
2023/05/11 12:02:44;;;;;;;0.00;0.00;;;18.30;99.90;;;;;;5092095;28;20491;-89
2023/05/11 12:05:21;;;;;;;0.10;0.10;;;18.80;99.90;;;;;;5092763;28;20028;-89
2023/05/11 12:07:51;;;;;;;0.00;0.00;;;18.80;99.90;;;;;;5092927;28;20024;-90
2023/05/11 12:10:22;;;;;;;0.00;0.00;;;19.20;99.90;;;;;;5091472;28;20035;-89
2023/05/11 12:12:50;;;;;;;0.10;0.10;;;20.00;99.90;;;;;;5092654;28;20035;-90
2023/05/11 12:15:29;;;;;;;0.00;0.00;;;20.70;99.90;;;;;;5092677;28;20036;-89
2023/05/11 12:17:55;;;;;;;0.10;0.10;;;20.40;99.90;;;;;;5092348;28;20073;-89
2023/05/11 12:20:21;;;;;;;0.10;0.10;;;20.50;99.90;;;;;;5092330;28;20048;-90
2023/05/11 12:22:48;;;;;;;0.00;0.00;;;20.70;99.90;;;;;;5091361;28;20395;-90
2023/05/11 12:25:16;;;;;;;0.10;0.10;;;20.60;99.90;;;;;;5090940;28;20385;-90
2023/05/11 12:28:02;;;;;;;0.00;0.00;;;20.50;99.90;;;;;;5092319;28;20472;-90
2023/05/11 12:30:31;;;;;;;0.00;0.00;;;21.80;99.90;;;;;;5091098;28;20031;-90
2023/05/11 12:32:58;;;;;;;0.47;0.10;;;22.90;99.90;;;;;;5090636;28;20070;-90
2023/05/11 12:35:30;;;;;;;0.00;0.00;;;21.50;99.90;;;;;;5092251;28;20053;-90
2023/05/11 12:37:59;;;;;;;0.00;0.00;;;20.30;99.90;;;;;;5092175;28;20138;-90
2023/05/11 12:40:26;;;;;;;0.00;0.00;;;19.70;99.90;;;;;;5092685;28;20024;-89
2023/05/11 12:42:57;;;;;;;0.10;0.10;;;19.20;99.90;;;;;;5090732;28;20074;-89
2023/05/11 12:45:25;;;;;;;0.10;0.10;;;18.90;99.90;;;;;;5092115;28;20039;-90
2023/05/11 12:47:53;;;;;;;0.10;0.10;;;18.40;99.90;;;;;;5091782;28;20496;-90
2023/05/11 12:50:19;;;;;;;0.00;0.00;;;17.80;99.90;;;;;;5092532;28;20020;-89
2023/05/11 12:52:45;;;;;;;0.38;0.38;;;17.60;99.90;;;;;;5092107;28;20124;-90
2023/05/11 12:55:11;;;;;;;0.08;0.08;;;17.40;99.90;;;;;;5091941;28;20027;-90